createdAt,value
2022-11-22T00:00:29.809Z,26.65
2022-11-22T00:02:56.533Z,25.67
2022-11-22T00:05:23.250Z,23.27
2022-11-22T00:07:50.216Z,27.95
2022-11-22T00:10:17.238Z,23.13
2022-11-22T00:12:44.322Z,17.95
2022-11-22T00:15:12.556Z,24.30
2022-11-22T00:17:40.005Z,26.63
2022-11-22T00:20:10.529Z,25.88
2022-11-22T00:22:43.993Z,25.83
2022-11-22T00:25:11.459Z,20.92
2022-11-22T00:27:38.214Z,18.42
2022-11-22T00:30:05.769Z,23.38
2022-11-22T00:32:32.756Z,17.77
2022-11-22T00:34:59.673Z,17.80
2022-11-22T00:37:26.394Z,22.10
2022-11-22T00:39:53.196Z,20.02
2022-11-22T00:42:19.954Z,17.90
2022-11-22T00:44:46.686Z,20.15
2022-11-22T00:47:13.429Z,19.73
2022-11-22T00:49:40.275Z,21.02
2022-11-22T00:52:07.254Z,15.85
2022-11-22T00:54:33.967Z,13.35
2022-11-22T00:57:00.675Z,17.17
2022-11-22T00:59:27.550Z,18.60
2022-11-22T01:01:54.440Z,14.98
2022-11-22T01:04:21.329Z,17.10
2022-11-22T01:06:48.079Z,16.27
2022-11-22T01:09:22.748Z,24.20
2022-11-22T01:11:49.974Z,16.50
2022-11-22T01:14:17.637Z,19.33
2022-11-22T01:16:44.785Z,20.30
2022-11-22T01:19:11.925Z,17.77
2022-11-22T01:21:38.942Z,16.20
2022-11-22T01:24:05.994Z,18.42
2022-11-22T01:26:34.064Z,19.90
2022-11-22T01:29:01.041Z,14.85
2022-11-22T01:31:29.861Z,17.02
2022-11-22T01:33:57.342Z,19.15
2022-11-22T01:36:24.149Z,24.45
2022-11-22T01:38:50.911Z,21.70
2022-11-22T01:41:17.640Z,20.13
2022-11-22T01:43:44.411Z,18.65
2022-11-22T01:46:26.197Z,17.02
2022-11-22T01:49:11.579Z,14.68
2022-11-22T01:51:44.007Z,13.80
2022-11-22T01:54:15.729Z,13.88
2022-11-22T01:56:46.088Z,14.35
2022-11-22T01:59:16.394Z,15.25
2022-11-22T02:01:43.531Z,13.50
2022-11-22T02:04:12.863Z,13.27
2022-11-22T02:06:48.508Z,15.02
2022-11-22T02:09:16.902Z,16.48
2022-11-22T02:11:48.475Z,17.45
2022-11-22T02:14:18.570Z,17.02
2022-11-22T02:16:47.660Z,17.60
2022-11-22T02:19:19.616Z,17.90
2022-11-22T02:21:51.684Z,15.63
2022-11-22T02:24:31.819Z,20.20
2022-11-22T02:26:58.958Z,19.83
2022-11-22T02:29:25.919Z,18.67
2022-11-22T02:31:52.694Z,19.77
2022-11-22T02:34:19.733Z,29.00
2022-11-22T02:36:50.014Z,18.65
2022-11-22T02:39:21.917Z,24.27
2022-11-22T02:41:49.759Z,21.20
2022-11-22T02:44:17.769Z,16.83
2022-11-22T02:46:57.608Z,15.80
2022-11-22T02:49:25.378Z,19.25
2022-11-22T02:51:53.030Z,19.52
2022-11-22T02:54:20.270Z,22.80
2022-11-22T02:56:47.335Z,21.13
2022-11-22T02:59:14.451Z,23.33
2022-11-22T03:01:42.145Z,16.90
2022-11-22T03:04:08.907Z,20.98
2022-11-22T03:06:35.737Z,17.92
2022-11-22T03:09:02.637Z,15.85
2022-11-22T03:11:29.522Z,13.27
2022-11-22T03:13:56.350Z,14.48
2022-11-22T03:16:25.368Z,12.45
2022-11-22T03:18:52.150Z,14.65
2022-11-22T03:21:18.893Z,11.25
2022-11-22T03:23:45.636Z,11.65
2022-11-22T03:26:12.926Z,13.98
2022-11-22T03:28:41.404Z,25.02
2022-11-22T03:31:08.717Z,31.08
2022-11-22T03:33:35.763Z,21.90
2022-11-22T03:36:02.867Z,23.40
2022-11-22T03:38:29.723Z,25.52
2022-11-22T03:40:56.625Z,19.52
2022-11-22T03:43:23.406Z,19.80
2022-11-22T03:45:50.238Z,20.40
2022-11-22T03:48:17.438Z,20.80
2022-11-22T03:50:44.602Z,23.35
2022-11-22T03:53:12.043Z,19.25
2022-11-22T03:55:38.872Z,23.33
2022-11-22T03:58:05.892Z,21.25
2022-11-22T04:00:34.990Z,21.95
2022-11-22T04:03:01.854Z,20.80
2022-11-22T04:05:30.805Z,21.00
2022-11-22T04:07:57.544Z,17.27
2022-11-22T04:10:25.040Z,18.85
2022-11-22T04:12:56.213Z,14.40
2022-11-22T04:15:22.981Z,18.75
2022-11-22T04:17:49.783Z,14.30
2022-11-22T04:20:47.107Z,19.70
2022-11-22T04:23:19.086Z,16.23
2022-11-22T04:25:48.490Z,18.88
2022-11-22T04:28:17.702Z,16.58
2022-11-22T04:31:03.331Z,18.25
2022-11-22T04:33:30.658Z,16.42
2022-11-22T04:35:57.459Z,15.13
2022-11-22T04:38:24.448Z,16.88
2022-11-22T04:40:51.206Z,17.13
2022-11-22T04:43:45.267Z,17.10
2022-11-22T04:46:13.394Z,17.48
2022-11-22T04:48:40.964Z,15.23
2022-11-22T04:51:26.776Z,16.55
2022-11-22T04:53:53.574Z,17.27
2022-11-22T04:56:20.326Z,17.38
2022-11-22T04:58:47.068Z,19.35
2022-11-22T05:01:14.053Z,17.20
2022-11-22T05:03:40.834Z,19.58
2022-11-22T05:06:07.579Z,20.40
2022-11-22T05:08:34.435Z,17.70
2022-11-22T05:11:01.217Z,19.13
2022-11-22T05:13:34.042Z,20.55
2022-11-22T05:16:02.911Z,24.60
2022-11-22T05:18:30.802Z,29.25
2022-11-22T05:20:58.058Z,24.23
2022-11-22T05:23:43.714Z,18.38
2022-11-22T05:26:11.108Z,17.48
2022-11-22T05:28:39.386Z,15.52
2022-11-22T05:31:16.432Z,16.10
2022-11-22T05:33:45.632Z,18.95
2022-11-22T05:36:12.801Z,14.32
2022-11-22T05:38:39.717Z,19.30
2022-11-22T05:41:09.970Z,19.80
2022-11-22T05:43:37.511Z,16.05
2022-11-22T05:46:19.574Z,14.20
2022-11-22T05:48:49.595Z,16.38
2022-11-22T05:51:18.596Z,17.83
2022-11-22T05:53:45.856Z,16.27
2022-11-22T05:56:23.472Z,14.70
2022-11-22T05:58:50.962Z,15.00
2022-11-22T06:01:23.323Z,17.20
2022-11-22T06:03:50.803Z,14.18
2022-11-22T06:06:17.655Z,15.32
2022-11-22T06:08:47.606Z,14.13
2022-11-22T06:11:22.556Z,19.10
2022-11-22T06:13:52.814Z,16.65
2022-11-22T06:16:19.929Z,15.02
2022-11-22T06:18:47.279Z,16.33
2022-11-22T06:21:15.460Z,15.80
2022-11-22T06:23:42.656Z,16.63
2022-11-22T06:26:12.395Z,13.75
2022-11-22T06:28:40.041Z,17.48
2022-11-22T06:31:12.039Z,17.45
2022-11-22T06:33:39.555Z,12.45
2022-11-22T06:36:12.338Z,14.63
2022-11-22T06:38:40.582Z,17.40
2022-11-22T06:41:12.545Z,14.35
2022-11-22T06:43:45.314Z,18.77
2022-11-22T06:46:16.431Z,15.60
2022-11-22T06:48:43.718Z,15.30
2022-11-22T06:51:18.895Z,24.42
2022-11-22T06:53:48.151Z,18.67
2022-11-22T06:56:21.319Z,26.20
2022-11-22T06:58:50.186Z,26.23
2022-11-22T07:01:19.421Z,16.08
2022-11-22T07:03:46.809Z,14.82
2022-11-22T07:06:15.427Z,15.32
2022-11-22T07:08:43.430Z,14.57
2022-11-22T07:11:16.339Z,17.58
2022-11-22T07:13:43.466Z,15.65
2022-11-22T07:16:12.455Z,13.63
2022-11-22T07:18:39.796Z,16.88
2022-11-22T07:21:13.497Z,15.05
2022-11-22T07:23:42.934Z,17.23
2022-11-22T07:26:10.431Z,21.83
2022-11-22T07:28:37.917Z,17.67
2022-11-22T07:31:07.129Z,17.92
2022-11-22T07:33:34.465Z,15.43
2022-11-22T07:36:09.059Z,17.58
2022-11-22T07:38:36.584Z,16.13
2022-11-22T07:41:04.230Z,18.15
2022-11-22T07:43:31.045Z,16.77
2022-11-22T07:46:01.524Z,15.20
2022-11-22T07:48:28.572Z,20.60
2022-11-22T07:50:55.604Z,17.70
2022-11-22T07:53:23.110Z,21.38
2022-11-22T07:55:50.357Z,19.90
2022-11-22T07:58:17.214Z,19.42
2022-11-22T08:00:43.982Z,17.63
2022-11-22T08:03:14.312Z,17.27
2022-11-22T08:05:43.913Z,16.23
2022-11-22T08:08:10.732Z,17.40
2022-11-22T08:10:37.452Z,16.77
2022-11-22T08:13:06.034Z,17.83
2022-11-22T08:15:33.026Z,18.95
2022-11-22T08:17:59.778Z,19.02
2022-11-22T08:20:26.556Z,20.67
2022-11-22T08:22:53.316Z,18.33
2022-11-22T08:25:20.060Z,19.02
2022-11-22T08:27:46.798Z,18.55
2022-11-22T08:30:13.629Z,18.27
2022-11-22T08:32:40.401Z,20.27
2022-11-22T08:35:07.885Z,17.58
2022-11-22T08:37:34.735Z,23.92
2022-11-22T08:40:01.889Z,23.33
2022-11-22T08:42:29.696Z,17.63
2022-11-22T08:44:56.534Z,16.90
2022-11-22T08:47:23.375Z,18.30
2022-11-22T08:49:50.132Z,17.92
2022-11-22T08:52:17.023Z,17.55
2022-11-22T08:54:49.574Z,19.13
2022-11-22T08:57:16.316Z,20.52
2022-11-22T08:59:43.092Z,19.63
2022-11-22T09:02:10.824Z,19.42
2022-11-22T09:04:37.533Z,15.63
2022-11-22T09:09:51.053Z,17.30
2022-11-22T09:12:17.956Z,20.27
2022-11-22T09:14:44.847Z,16.90
2022-11-22T09:17:17.339Z,16.42
2022-11-22T09:19:45.333Z,18.45
2022-11-22T09:22:12.133Z,14.18
2022-11-22T09:24:38.946Z,17.98
2022-11-22T09:27:06.285Z,17.52
2022-11-22T09:29:33.320Z,16.77
2022-11-22T09:32:00.723Z,13.30
2022-11-22T09:34:27.465Z,13.77
2022-11-22T09:36:54.225Z,13.18
2022-11-22T09:39:20.980Z,15.52
2022-11-22T09:42:04.391Z,12.48
2022-11-22T09:44:55.445Z,14.77
2022-11-22T09:47:36.843Z,14.70
2022-11-22T09:50:15.041Z,13.98
2022-11-22T09:52:55.766Z,15.27
2022-11-22T09:55:42.400Z,13.50
2022-11-22T09:58:33.395Z,11.93
2022-11-22T10:01:27.548Z,16.30
2022-11-22T10:03:57.718Z,12.93
2022-11-22T10:06:32.582Z,13.63
2022-11-22T10:09:20.814Z,13.85
2022-11-22T10:12:19.008Z,12.68
2022-11-22T10:14:57.707Z,12.65
2022-11-22T10:17:52.977Z,13.20
2022-11-22T10:20:22.598Z,15.60
2022-11-22T10:22:49.912Z,14.80
2022-11-22T10:25:39.705Z,10.77
2022-11-22T10:28:20.815Z,11.38
2022-11-22T10:31:17.512Z,12.20
2022-11-22T10:33:53.217Z,11.98
2022-11-22T10:36:38.931Z,13.48
2022-11-22T10:39:50.562Z,14.32
2022-11-22T10:42:41.724Z,14.73
2022-11-22T10:45:31.084Z,13.50
2022-11-22T10:48:22.040Z,12.63
2022-11-22T10:51:11.398Z,14.35
2022-11-22T10:54:04.060Z,13.75
2022-11-22T10:56:42.697Z,15.77
2022-11-22T10:59:31.034Z,12.80
2022-11-22T11:02:21.080Z,13.82
2022-11-22T11:04:50.729Z,12.07
2022-11-22T11:07:22.111Z,13.13
2022-11-22T11:10:11.538Z,13.95
2022-11-22T11:12:58.325Z,12.60
2022-11-22T11:15:34.033Z,12.25
2022-11-22T11:18:03.922Z,12.95
2022-11-22T11:20:37.503Z,13.75
2022-11-22T11:25:45.051Z,13.45
2022-11-22T11:28:16.454Z,14.15
2022-11-22T11:30:47.417Z,12.77
2022-11-22T11:33:20.671Z,14.98
2022-11-22T11:35:48.245Z,14.90
2022-11-22T11:38:48.434Z,12.93
2022-11-22T11:41:30.372Z,13.98
2022-11-22T11:44:04.253Z,13.35
2022-11-22T11:46:45.721Z,12.73
2022-11-22T11:49:24.309Z,12.15
2022-11-22T11:51:58.681Z,16.73
2022-11-22T11:54:42.919Z,17.02
2022-11-22T11:57:14.053Z,14.70
2022-11-22T11:59:44.014Z,17.70
2022-11-22T12:02:10.916Z,16.90
2022-11-22T12:04:49.688Z,17.05
2022-11-22T12:07:25.628Z,17.88
2022-11-22T12:09:55.251Z,19.23
2022-11-22T12:12:48.753Z,16.52
2022-11-22T12:15:19.594Z,17.83
2022-11-22T12:17:57.102Z,16.42
2022-11-22T12:20:36.326Z,15.10
2022-11-22T12:23:13.008Z,15.20
2022-11-22T12:25:40.618Z,12.75
2022-11-22T12:28:21.219Z,15.40
2022-11-22T12:31:15.399Z,14.52
2022-11-22T12:33:54.689Z,13.02
2022-11-22T12:36:47.811Z,12.50
2022-11-22T12:39:27.790Z,13.90
2022-11-22T12:42:08.450Z,12.07
2022-11-22T12:44:54.123Z,13.05
2022-11-22T12:47:25.904Z,13.13
2022-11-22T12:49:59.529Z,9.05
2022-11-22T12:52:45.507Z,10.38
2022-11-22T12:55:24.926Z,12.25
2022-11-22T12:58:27.610Z,13.80
2022-11-22T13:01:07.659Z,11.60
2022-11-22T13:03:42.129Z,10.40
2022-11-22T13:06:10.701Z,14.23
2022-11-22T13:09:04.252Z,11.82
2022-11-22T13:11:34.556Z,17.73
2022-11-22T13:14:21.206Z,21.02
2022-11-22T13:16:50.964Z,15.00
2022-11-22T13:19:22.639Z,12.23
2022-11-22T13:22:18.729Z,10.27
2022-11-22T13:25:13.058Z,12.18
2022-11-22T13:27:45.794Z,9.55
2022-11-22T13:30:24.437Z,10.98
2022-11-22T13:33:00.225Z,12.75
2022-11-22T13:35:36.980Z,8.98
2022-11-22T13:38:14.843Z,10.85
2022-11-22T13:40:45.423Z,9.55
2022-11-22T13:43:21.635Z,9.40
2022-11-22T13:45:50.144Z,9.23
2022-11-22T13:48:38.980Z,9.55
2022-11-22T13:51:14.135Z,9.93
2022-11-22T13:53:43.962Z,10.73
2022-11-22T13:56:16.921Z,8.52
2022-11-22T13:59:12.673Z,10.98
2022-11-22T14:01:39.473Z,10.35
2022-11-22T14:04:21.141Z,9.05
2022-11-22T14:06:56.830Z,10.48
2022-11-22T14:09:53.682Z,12.68
2022-11-22T14:12:45.528Z,10.63
2022-11-22T14:15:21.404Z,15.48
2022-11-22T14:18:17.572Z,13.77
2022-11-22T14:21:03.169Z,13.27
2022-11-22T14:23:41.262Z,13.43
2022-11-22T14:26:30.283Z,11.25
2022-11-22T14:29:16.024Z,14.60
2022-11-22T14:31:51.576Z,17.73
2022-11-22T14:34:24.358Z,13.68
2022-11-22T14:37:09.938Z,16.08
2022-11-22T14:39:47.330Z,16.35
2022-11-22T14:42:47.358Z,15.13
2022-11-22T14:45:23.158Z,15.98
2022-11-22T14:47:53.098Z,15.18
2022-11-22T14:50:43.563Z,13.15
2022-11-22T14:53:35.612Z,14.93
2022-11-22T14:56:33.062Z,13.55
2022-11-22T14:59:15.062Z,13.75
2022-11-22T15:01:44.616Z,13.32
2022-11-22T15:09:12.370Z,13.82
2022-11-22T15:09:20.357Z,13.02
2022-11-22T15:11:42.850Z,15.23
2022-11-22T15:14:09.548Z,14.75
2022-11-22T15:59:46.887Z,15.52
2022-11-22T16:02:22.275Z,14.00
2022-11-22T16:06:07.807Z,14.93
2022-11-22T16:07:56.122Z,15.70
2022-11-22T16:10:32.991Z,14.07
2022-11-22T16:13:20.315Z,15.73
2022-11-22T16:16:11.636Z,16.52
2022-11-22T16:18:40.327Z,18.40
2022-11-22T16:21:10.590Z,17.98
2022-11-22T16:23:46.538Z,18.52
2022-11-22T16:26:19.238Z,18.10
2022-11-22T16:28:49.145Z,17.48
2022-11-22T16:31:31.359Z,21.27
2022-11-22T16:33:58.832Z,21.27
2022-11-22T16:36:29.237Z,20.17
2022-11-22T16:38:56.077Z,20.58
2022-11-22T16:41:25.127Z,21.00
2022-11-22T16:44:17.073Z,21.75
2022-11-22T16:46:43.808Z,19.45
2022-11-22T16:49:21.895Z,21.92
2022-11-22T16:51:51.041Z,20.73
2022-11-22T16:54:20.031Z,22.23
2022-11-22T16:56:47.216Z,21.92
2022-11-22T16:59:13.945Z,17.05
2022-11-22T17:01:42.558Z,17.38
2022-11-22T17:04:25.180Z,18.48
2022-11-22T17:06:52.367Z,24.67
2022-11-22T17:09:19.494Z,28.17
2022-11-22T17:11:46.531Z,21.90
2022-11-22T17:14:17.523Z,21.00
2022-11-22T17:16:45.858Z,19.73
2022-11-22T17:19:37.628Z,23.83
2022-11-22T17:22:00.827Z,18.63
2022-11-22T17:24:27.632Z,17.88
2022-11-22T17:26:54.573Z,19.83
2022-11-22T17:29:51.489Z,16.27
2022-11-22T17:32:13.206Z,22.40
2022-11-22T17:34:40.140Z,19.13
2022-11-22T17:37:12.252Z,18.10
2022-11-22T17:39:39.524Z,20.30
2022-11-22T17:42:06.858Z,20.35
2022-11-22T17:44:34.117Z,20.25
2022-11-22T17:47:01.101Z,23.48
2022-11-22T17:49:32.323Z,24.55
2022-11-22T17:51:59.682Z,27.42
2022-11-22T17:54:26.449Z,27.95
2022-11-22T17:56:53.262Z,24.23
2022-11-22T17:59:20.068Z,21.48
2022-11-22T18:01:47.281Z,21.27
2022-11-22T18:04:14.698Z,18.92
2022-11-22T18:06:41.618Z,20.83
2022-11-22T18:09:08.555Z,21.90
2022-11-22T18:11:35.377Z,22.10
2022-11-22T18:14:02.251Z,19.83
2022-11-22T18:16:30.020Z,19.88
2022-11-22T18:18:58.238Z,20.50
2022-11-22T18:21:26.739Z,21.17
2022-11-22T18:23:53.520Z,19.95
2022-11-22T18:31:55.299Z,19.05
2022-11-22T18:34:23.069Z,17.75
2022-11-22T18:37:01.969Z,17.52
2022-11-22T18:39:31.989Z,15.93
2022-11-22T18:41:59.156Z,20.55
2022-11-22T18:44:26.218Z,16.35
2022-11-22T18:46:53.055Z,18.35
2022-11-22T18:49:19.843Z,22.10
2022-11-22T18:51:46.592Z,16.45
2022-11-22T18:54:13.498Z,16.58
2022-11-22T18:56:40.998Z,18.17
2022-11-22T18:59:10.415Z,19.42
2022-11-22T19:01:37.592Z,19.60
2022-11-22T19:04:04.825Z,16.58
2022-11-22T19:06:31.665Z,18.40
2022-11-22T19:08:58.634Z,18.23
2022-11-22T19:11:28.399Z,19.17
2022-11-22T19:13:55.360Z,16.42
2022-11-22T19:16:23.439Z,17.42
2022-11-22T19:18:50.332Z,17.27
2022-11-22T19:21:20.387Z,17.58
2022-11-22T19:23:49.568Z,18.73
2022-11-22T19:26:22.468Z,20.17
2022-11-22T19:28:50.679Z,25.15
2022-11-22T19:31:19.549Z,25.77
2022-11-22T19:33:46.755Z,23.70
2022-11-22T19:36:16.935Z,20.58
2022-11-22T19:38:44.622Z,20.35
2022-11-22T19:41:13.676Z,14.80
2022-11-22T19:43:40.814Z,17.33
2022-11-22T19:46:07.779Z,14.35
2022-11-22T19:48:42.343Z,14.82
2022-11-22T19:51:14.156Z,15.35
2022-11-22T19:53:44.574Z,14.35
2022-11-22T19:56:16.864Z,15.40
2022-11-22T19:58:48.788Z,14.30
2022-11-22T20:01:16.602Z,16.67
2022-11-22T20:03:44.077Z,13.70
2022-11-22T20:06:13.482Z,16.90
2022-11-22T20:08:40.974Z,16.55
2022-11-22T20:11:10.179Z,17.83
2022-11-22T20:13:45.644Z,17.95
2022-11-22T20:16:31.636Z,16.30
2022-11-22T20:19:04.722Z,14.85
2022-11-22T20:21:33.623Z,39.58
2022-11-22T20:24:00.929Z,30.00
2022-11-22T20:26:29.449Z,17.42
2022-11-22T20:29:07.770Z,14.20
2022-11-22T20:31:37.037Z,15.05
2022-11-22T20:34:04.145Z,15.52
2022-11-22T20:36:32.822Z,12.63
2022-11-22T20:39:04.010Z,17.48
2022-11-22T20:41:34.205Z,15.07
2022-11-22T20:44:00.981Z,15.35
2022-11-22T20:46:28.958Z,14.25
2022-11-22T20:48:57.893Z,16.38
2022-11-22T20:51:27.336Z,15.90
2022-11-22T20:53:54.530Z,16.58
2022-11-22T20:56:21.526Z,21.75
2022-11-22T20:58:48.559Z,15.45
2022-11-22T21:01:18.199Z,24.92
2022-11-22T21:03:45.302Z,24.15
2022-11-22T21:06:13.508Z,28.13
2022-11-22T21:08:41.300Z,22.95
2022-11-22T21:11:19.378Z,26.10
2022-11-22T21:13:47.269Z,36.92
2022-11-22T21:16:24.433Z,33.47
2022-11-22T21:19:02.371Z,24.92
2022-11-22T21:21:30.516Z,36.17
2022-11-22T21:24:00.439Z,27.90
2022-11-22T21:26:27.714Z,24.08
2022-11-22T21:28:54.535Z,22.30
2022-11-22T21:31:22.278Z,21.20
2022-11-22T21:33:49.747Z,19.25
2022-11-22T21:36:17.009Z,20.00
2022-11-22T21:38:43.825Z,21.15
2022-11-22T21:44:05.813Z,26.58
2022-11-22T21:46:32.554Z,31.75
2022-11-22T21:48:59.287Z,23.30
2022-11-22T21:51:26.671Z,24.85
2022-11-22T21:54:00.558Z,28.52
2022-11-22T21:56:27.836Z,22.20
2022-11-22T21:58:55.262Z,29.85
2022-11-22T22:01:22.481Z,23.30
2022-11-22T22:03:49.504Z,21.10
2022-11-22T22:06:16.225Z,21.52
2022-11-22T22:08:43.596Z,22.25
2022-11-22T22:11:10.356Z,18.45
2022-11-22T22:13:37.088Z,19.40
2022-11-22T22:16:06.821Z,19.00
2022-11-22T22:18:37.838Z,23.55
2022-11-22T22:21:07.239Z,16.10
2022-11-22T22:23:35.621Z,18.20
2022-11-22T22:26:05.314Z,17.45
2022-11-22T22:28:33.725Z,20.52
2022-11-22T22:31:12.734Z,16.63
2022-11-22T22:33:41.549Z,15.02
2022-11-22T22:36:09.833Z,19.27
2022-11-22T22:38:36.877Z,15.65
2022-11-22T22:41:05.178Z,16.63
2022-11-22T22:43:37.168Z,16.15
2022-11-22T22:46:24.828Z,16.67
2022-11-22T22:48:52.206Z,20.30
2022-11-22T22:51:20.079Z,20.88
2022-11-22T22:53:47.330Z,18.83
2022-11-22T22:56:16.174Z,25.80
2022-11-22T22:58:43.302Z,16.52
2022-11-22T23:01:17.554Z,18.33
2022-11-22T23:03:49.168Z,20.95
2022-11-22T23:06:16.861Z,21.77
2022-11-22T23:08:46.435Z,21.92
2022-11-22T23:11:14.019Z,34.17
2022-11-22T23:13:42.935Z,37.05
2022-11-22T23:16:12.827Z,26.27
2022-11-22T23:18:44.449Z,43.53
2022-11-22T23:21:13.808Z,23.70
2022-11-22T23:23:40.850Z,34.15
2022-11-22T23:26:10.537Z,39.63
2022-11-22T23:28:38.067Z,45.10
2022-11-22T23:31:07.388Z,60.60
2022-11-22T23:33:34.696Z,69.35
2022-11-22T23:36:05.871Z,59.28
2022-11-22T23:38:33.009Z,40.90
2022-11-22T23:41:00.253Z,59.17
2022-11-22T23:43:27.834Z,46.55
2022-11-22T23:45:54.753Z,34.50
2022-11-22T23:48:21.834Z,41.22
2022-11-22T23:50:48.530Z,27.08
2022-11-22T23:53:15.288Z,26.10
2022-11-22T23:55:42.111Z,23.13
2022-11-22T23:58:08.841Z,21.80
